createdAt,value
2022-08-22T00:01:06.093Z,5.70
2022-08-22T00:02:43.621Z,5.20
2022-08-22T00:03:07.040Z,5.40
2022-08-22T00:03:07.586Z,4.25
2022-08-22T00:03:59.399Z,5.90
2022-08-22T00:06:44.410Z,7.15
2022-08-22T00:09:33.409Z,6.47
2022-08-22T00:12:12.342Z,6.35
2022-08-22T00:14:48.717Z,5.47
2022-08-22T00:17:41.183Z,6.05
2022-08-22T00:20:33.311Z,6.15
2022-08-22T00:23:18.270Z,7.30
2022-08-22T00:25:51.566Z,6.95
2022-08-22T00:28:21.488Z,6.68
2022-08-22T00:31:07.631Z,7.25
2022-08-22T00:34:00.577Z,7.13
2022-08-22T00:36:39.500Z,6.22
2022-08-22T00:39:43.893Z,6.13
2022-08-22T00:42:32.699Z,7.05
2022-08-22T00:45:08.721Z,6.65
2022-08-22T00:47:36.525Z,6.60
2022-08-22T00:50:38.442Z,6.20
2022-08-22T00:53:39.603Z,7.35
2022-08-22T00:56:12.588Z,6.07
2022-08-22T00:58:52.087Z,6.55
2022-08-22T01:01:26.783Z,7.30
2022-08-22T01:04:21.237Z,6.75
2022-08-22T01:07:05.781Z,7.68
2022-08-22T01:10:01.835Z,6.78
2022-08-22T01:12:46.078Z,6.72
2022-08-22T01:15:22.992Z,7.53
2022-08-22T01:18:27.241Z,7.25
2022-08-22T01:21:24.176Z,7.72
2022-08-22T01:23:57.731Z,6.78
2022-08-22T01:26:44.729Z,6.85
2022-08-22T01:29:50.632Z,7.10
2022-08-22T01:32:39.595Z,6.57
2022-08-22T01:35:26.180Z,6.90
2022-08-22T01:38:37.495Z,6.70
2022-08-22T01:41:13.550Z,7.28
2022-08-22T01:44:08.443Z,5.95
2022-08-22T01:46:53.979Z,6.97
2022-08-22T01:49:44.659Z,7.40
2022-08-22T01:52:32.999Z,6.50
2022-08-22T01:55:32.347Z,6.45
2022-08-22T01:58:24.670Z,6.57
2022-08-22T02:01:12.781Z,6.32
2022-08-22T02:04:05.626Z,7.28
2022-08-22T02:07:03.600Z,7.03
2022-08-22T02:09:44.183Z,6.60
2022-08-22T02:12:35.353Z,6.53
2022-08-22T02:15:06.862Z,7.32
2022-08-22T02:17:51.621Z,6.07
2022-08-22T02:20:29.723Z,6.68
2022-08-22T02:23:24.711Z,7.15
2022-08-22T02:26:02.210Z,6.65
2022-08-22T02:28:57.059Z,6.80
2022-08-22T02:31:42.988Z,8.60
2022-08-22T02:34:33.461Z,7.00
2022-08-22T02:37:23.234Z,7.78
2022-08-22T02:40:02.960Z,8.60
2022-08-22T02:42:49.375Z,7.57
2022-08-22T02:45:28.364Z,7.63
2022-08-22T02:48:20.106Z,7.20
2022-08-22T02:50:54.684Z,9.55
2022-08-22T02:53:40.007Z,8.70
2022-08-22T02:56:14.638Z,9.48
2022-08-22T02:58:54.147Z,8.93
2022-08-22T03:01:32.391Z,9.00
2022-08-22T03:04:23.741Z,8.25
2022-08-22T03:07:26.051Z,10.63
2022-08-22T03:10:20.574Z,10.00
2022-08-22T03:13:12.379Z,11.18
2022-08-22T03:15:49.582Z,10.63
2022-08-22T03:18:47.625Z,13.05
2022-08-22T03:21:24.660Z,13.23
2022-08-22T03:24:00.966Z,12.82
2022-08-22T03:26:30.386Z,11.82
2022-08-22T03:29:06.393Z,10.45
2022-08-22T03:31:33.744Z,10.68
2022-08-22T03:34:30.112Z,12.48
2022-08-22T03:37:21.587Z,10.55
2022-08-22T03:39:51.831Z,10.50
2022-08-22T03:42:55.841Z,10.50
2022-08-22T03:45:44.388Z,9.63
2022-08-22T03:48:42.247Z,10.85
2022-08-22T03:51:41.502Z,10.60
2022-08-22T03:54:20.616Z,10.90
2022-08-22T03:57:17.703Z,10.23
2022-08-22T04:03:17.227Z,8.90
2022-08-22T04:05:50.910Z,9.82
2022-08-22T04:08:44.009Z,9.75
2022-08-22T04:11:15.855Z,9.43
2022-08-22T04:13:54.200Z,9.75
2022-08-22T04:16:58.971Z,9.43
2022-08-22T04:19:44.379Z,10.43
2022-08-22T04:22:15.859Z,10.63
2022-08-22T04:25:11.063Z,10.60
2022-08-22T04:27:53.283Z,10.32
2022-08-22T04:30:26.169Z,10.40
2022-08-22T04:33:01.864Z,9.88
2022-08-22T04:35:37.762Z,10.60
2022-08-22T04:38:12.822Z,10.45
2022-08-22T04:40:55.632Z,10.52
2022-08-22T04:43:33.095Z,11.60
2022-08-22T04:46:14.854Z,11.15
2022-08-22T04:48:50.094Z,11.00
2022-08-22T04:51:26.656Z,10.82
2022-08-22T04:54:31.172Z,11.05
2022-08-22T04:57:16.123Z,11.00
2022-08-22T04:59:44.195Z,12.23
2022-08-22T05:02:22.611Z,11.93
2022-08-22T05:05:01.850Z,11.73
2022-08-22T05:07:44.455Z,10.48
2022-08-22T05:10:25.914Z,11.70
2022-08-22T05:13:02.751Z,13.38
2022-08-22T05:15:38.671Z,12.02
2022-08-22T05:18:16.582Z,11.82
2022-08-22T05:20:49.282Z,12.07
2022-08-22T05:23:26.890Z,13.25
2022-08-22T05:25:59.423Z,12.73
2022-08-22T05:28:44.421Z,12.75
2022-08-22T05:31:18.945Z,12.43
2022-08-22T05:33:59.351Z,12.90
2022-08-22T05:36:30.799Z,14.07
2022-08-22T05:39:03.309Z,14.43
2022-08-22T05:41:37.187Z,15.55
2022-08-22T05:44:08.188Z,16.00
2022-08-22T05:46:44.480Z,16.50
2022-08-22T05:49:37.342Z,14.40
2022-08-22T05:52:32.022Z,16.25
2022-08-22T05:55:15.189Z,19.05
2022-08-22T05:57:47.736Z,15.98
2022-08-22T06:00:21.713Z,15.18
2022-08-22T06:03:39.702Z,15.57
2022-08-22T06:06:15.333Z,14.68
2022-08-22T06:08:51.745Z,15.30
2022-08-22T06:11:38.621Z,16.40
2022-08-22T06:15:11.888Z,18.13
2022-08-22T06:17:51.630Z,15.52
2022-08-22T06:20:25.949Z,17.05
2022-08-22T06:23:03.250Z,16.27
2022-08-22T06:25:37.708Z,16.60
2022-08-22T06:28:09.317Z,16.45
2022-08-22T06:30:44.231Z,17.83
2022-08-22T06:36:08.288Z,19.52
2022-08-22T06:39:03.384Z,19.20
2022-08-22T06:41:34.317Z,18.58
2022-08-22T06:44:08.720Z,20.05
2022-08-22T06:46:38.633Z,19.85
2022-08-22T06:49:07.982Z,19.13
2022-08-22T06:51:38.526Z,18.33
2022-08-22T06:54:11.645Z,19.42
2022-08-22T06:56:44.475Z,18.45
2022-08-22T06:59:18.532Z,18.90
2022-08-22T07:01:51.334Z,17.95
2022-08-22T07:04:26.531Z,17.10
2022-08-22T07:06:57.203Z,16.10
2022-08-22T07:09:29.525Z,17.35
2022-08-22T07:12:01.152Z,16.42
2022-08-22T07:14:43.146Z,15.35
2022-08-22T07:17:23.015Z,12.65
2022-08-22T07:20:05.824Z,14.10
2022-08-22T07:22:35.825Z,13.20
2022-08-22T07:25:09.401Z,13.18
2022-08-22T07:28:19.881Z,13.02
2022-08-22T07:30:58.355Z,14.32
2022-08-22T07:33:53.542Z,13.27
2022-08-22T07:36:36.832Z,14.35
2022-08-22T07:39:28.309Z,13.98
2022-08-22T07:42:07.226Z,13.77
2022-08-22T07:45:03.654Z,14.43
2022-08-22T07:47:49.884Z,13.63
2022-08-22T07:50:28.403Z,14.35
2022-08-22T07:53:04.586Z,13.35
2022-08-22T07:55:32.297Z,13.18
2022-08-22T07:58:04.937Z,13.70
2022-08-22T08:00:33.007Z,13.13
2022-08-22T08:03:07.455Z,12.93
2022-08-22T08:05:37.559Z,12.98
2022-08-22T08:08:12.325Z,12.75
2022-08-22T08:10:43.158Z,12.18
2022-08-22T08:13:22.332Z,12.20
2022-08-22T08:15:50.870Z,12.18
2022-08-22T08:18:26.008Z,11.82
2022-08-22T08:20:58.182Z,12.07
2022-08-22T08:23:31.619Z,12.85
2022-08-22T08:25:58.906Z,12.90
2022-08-22T08:28:36.529Z,13.13
2022-08-22T08:31:27.124Z,12.13
2022-08-22T08:34:02.145Z,11.88
2022-08-22T08:37:05.536Z,13.52
2022-08-22T08:39:44.987Z,12.10
2022-08-22T08:42:19.924Z,14.05
2022-08-22T08:48:16.587Z,13.88
2022-08-22T08:50:57.198Z,12.40
2022-08-22T08:53:58.502Z,12.50
2022-08-22T08:56:38.552Z,12.25
2022-08-22T08:59:36.223Z,13.38
2022-08-22T09:02:34.877Z,12.30
2022-08-22T09:05:41.746Z,12.48
2022-08-22T09:08:18.453Z,12.07
2022-08-22T09:11:16.460Z,13.50
2022-08-22T09:14:11.250Z,13.05
2022-08-22T09:17:08.849Z,10.80
2022-08-22T09:19:57.666Z,12.15
2022-08-22T09:23:10.997Z,18.75
2022-08-22T09:25:44.033Z,12.32
2022-08-22T09:28:14.494Z,12.65
2022-08-22T09:31:16.609Z,13.40
2022-08-22T09:33:59.169Z,13.52
2022-08-22T09:36:53.054Z,13.82
2022-08-22T09:39:33.495Z,13.13
2022-08-22T09:42:02.824Z,13.57
2022-08-22T09:44:54.161Z,13.95
2022-08-22T09:47:39.248Z,13.10
2022-08-22T09:50:18.213Z,15.27
2022-08-22T09:53:31.703Z,15.23
2022-08-22T09:56:20.172Z,14.52
2022-08-22T09:59:03.452Z,14.88
2022-08-22T10:01:51.877Z,14.38
2022-08-22T10:04:42.877Z,14.63
2022-08-22T10:07:48.091Z,13.73
2022-08-22T10:10:26.192Z,16.52
2022-08-22T10:13:04.164Z,14.35
2022-08-22T10:15:55.566Z,15.05
2022-08-22T10:18:35.577Z,14.07
2022-08-22T10:21:15.721Z,15.82
2022-08-22T10:23:54.778Z,15.68
2022-08-22T10:26:29.367Z,14.32
2022-08-22T10:31:59.266Z,15.80
2022-08-22T10:34:45.881Z,14.52
2022-08-22T10:37:31.409Z,13.05
2022-08-22T10:40:08.609Z,13.30
2022-08-22T10:42:53.666Z,13.93
2022-08-22T10:45:36.345Z,18.13
2022-08-22T10:48:09.500Z,22.60
2022-08-22T10:50:48.044Z,17.42
2022-08-22T10:53:40.356Z,17.42
2022-08-22T10:56:17.140Z,18.40
2022-08-22T10:58:55.077Z,17.88
2022-08-22T11:01:38.075Z,18.80
2022-08-22T11:04:17.786Z,21.42
2022-08-22T11:07:03.408Z,17.38
2022-08-22T11:09:42.807Z,13.23
2022-08-22T11:12:35.161Z,13.38
2022-08-22T11:15:08.743Z,13.23
2022-08-22T11:18:03.572Z,13.80
2022-08-22T11:20:49.144Z,14.27
2022-08-22T11:23:45.308Z,15.20
2022-08-22T11:26:33.610Z,14.27
2022-08-22T11:29:13.650Z,12.50
2022-08-22T11:32:11.187Z,10.75
2022-08-22T11:34:44.811Z,11.02
2022-08-22T11:37:23.895Z,21.60
2022-08-22T11:40:23.571Z,10.88
2022-08-22T11:43:19.351Z,10.40
2022-08-22T11:45:51.821Z,10.63
2022-08-22T11:48:30.641Z,9.70
2022-08-22T11:51:28.013Z,9.07
2022-08-22T11:54:31.045Z,9.27
2022-08-22T11:57:34.339Z,10.18
2022-08-22T12:00:29.225Z,9.32
2022-08-22T12:03:24.013Z,10.90
2022-08-22T12:05:51.620Z,11.07
2022-08-22T12:08:43.560Z,10.07
2022-08-22T12:11:50.044Z,9.40
2022-08-22T12:14:31.640Z,10.70
2022-08-22T12:17:26.274Z,26.33
2022-08-22T12:32:59.153Z,9.88
2022-08-22T12:35:41.467Z,10.98
2022-08-22T12:38:37.966Z,12.30
2022-08-22T12:41:14.609Z,10.02
2022-08-22T12:44:20.424Z,10.27
2022-08-22T12:47:09.669Z,10.13
2022-08-22T12:49:53.461Z,8.40
2022-08-22T12:52:48.993Z,9.32
2022-08-22T12:55:58.977Z,8.77
2022-08-22T12:58:51.084Z,10.45
2022-08-22T13:01:20.044Z,10.27
2022-08-22T13:04:00.290Z,10.52
2022-08-22T13:06:37.916Z,11.82
2022-08-22T13:09:29.044Z,16.83
2022-08-22T13:12:22.040Z,15.50
2022-08-22T13:15:11.969Z,12.50
2022-08-22T13:17:44.703Z,13.10
2022-08-22T13:20:22.598Z,15.75
2022-08-22T13:26:34.059Z,13.10
2022-08-22T13:29:25.754Z,12.85
2022-08-22T13:32:02.202Z,11.38
2022-08-22T13:34:48.413Z,14.65
2022-08-22T13:37:24.826Z,11.85
2022-08-22T13:39:58.900Z,12.23
2022-08-22T13:42:31.311Z,12.57
2022-08-22T13:45:05.156Z,13.55
2022-08-22T13:47:39.460Z,12.82
2022-08-22T13:50:19.359Z,14.30
2022-08-22T13:53:11.467Z,14.23
2022-08-22T13:55:55.959Z,12.52
2022-08-22T14:01:25.403Z,13.65
2022-08-22T14:04:05.760Z,13.65
2022-08-22T14:07:02.069Z,15.48
2022-08-22T14:10:18.394Z,14.73
2022-08-22T14:12:55.996Z,15.23
2022-08-22T14:15:45.396Z,15.60
2022-08-22T14:18:30.353Z,14.93
2022-08-22T14:21:17.525Z,18.08
2022-08-22T14:23:46.257Z,15.73
2022-08-22T14:26:50.516Z,17.33
2022-08-22T14:29:20.649Z,17.92
2022-08-22T14:32:04.623Z,18.02
2022-08-22T14:34:42.634Z,17.73
2022-08-22T14:37:30.555Z,16.27
2022-08-22T14:40:22.565Z,20.77
2022-08-22T14:42:58.883Z,19.17
2022-08-22T14:45:35.247Z,19.35
2022-08-22T14:48:30.390Z,19.75
2022-08-22T14:51:04.130Z,21.02
2022-08-22T14:53:38.631Z,21.13
2022-08-22T14:56:08.822Z,17.48
2022-08-22T14:58:47.854Z,20.33
2022-08-22T15:01:19.296Z,22.63
2022-08-22T15:04:11.455Z,20.10
2022-08-22T15:06:48.253Z,22.05
2022-08-22T15:09:41.639Z,20.05
2022-08-22T15:12:26.476Z,22.30
2022-08-22T15:14:58.448Z,24.42
2022-08-22T15:17:54.931Z,24.73
2022-08-22T15:20:35.644Z,20.98
2022-08-22T15:23:15.925Z,83.07
2022-08-22T15:25:47.041Z,33.88
2022-08-22T15:28:17.228Z,40.38
2022-08-22T15:30:54.197Z,21.40
2022-08-22T15:33:21.425Z,22.65
2022-08-22T15:35:52.734Z,21.67
2022-08-22T15:38:32.482Z,25.40
2022-08-22T15:41:23.827Z,27.90
2022-08-22T15:44:15.118Z,20.40
2022-08-22T15:47:11.757Z,25.33
2022-08-22T15:50:05.503Z,26.25
2022-08-22T15:53:06.830Z,31.02
2022-08-22T15:55:35.608Z,26.73
2022-08-22T15:58:22.537Z,24.90
2022-08-22T16:01:19.968Z,23.90
2022-08-22T16:03:54.329Z,24.08
2022-08-22T16:06:40.310Z,24.58
2022-08-22T16:09:30.437Z,25.38
2022-08-22T16:12:05.067Z,26.42
2022-08-22T16:14:35.490Z,27.35
2022-08-22T16:17:27.842Z,28.52
2022-08-22T16:20:15.811Z,25.23
2022-08-22T16:22:59.099Z,26.08
2022-08-22T16:25:45.075Z,24.27
2022-08-22T16:28:54.347Z,25.42
2022-08-22T16:31:32.070Z,24.23
2022-08-22T16:34:22.432Z,24.98
2022-08-22T16:37:09.120Z,25.38
2022-08-22T16:39:42.106Z,25.13
2022-08-22T16:42:24.849Z,23.63
2022-08-22T16:45:05.493Z,22.25
2022-08-22T16:47:32.971Z,22.77
2022-08-22T16:50:23.011Z,22.50
2022-08-22T16:53:19.155Z,22.83
2022-08-22T16:55:55.524Z,22.00
2022-08-22T16:58:49.899Z,23.90
2022-08-22T17:01:42.109Z,22.08
2022-08-22T17:04:22.111Z,22.40
2022-08-22T17:07:07.754Z,21.63
2022-08-22T17:09:41.397Z,22.25
2022-08-22T17:12:52.407Z,20.33
2022-08-22T17:15:41.306Z,20.23
2022-08-22T17:18:12.219Z,22.05
2022-08-22T17:21:04.633Z,20.58
2022-08-22T17:23:53.972Z,19.55
2022-08-22T17:26:21.103Z,20.45
2022-08-22T17:29:10.970Z,17.88
2022-08-22T17:32:00.125Z,20.33
2022-08-22T17:34:59.722Z,19.25
2022-08-22T17:37:42.589Z,17.60
2022-08-22T17:40:45.783Z,19.67
2022-08-22T17:43:33.464Z,19.17
2022-08-22T17:46:36.634Z,17.05
2022-08-22T17:49:22.914Z,17.73
2022-08-22T17:51:59.936Z,17.00
2022-08-22T17:54:37.639Z,16.60
2022-08-22T17:57:14.210Z,16.55
2022-08-22T17:59:52.672Z,15.95
2022-08-22T18:02:27.849Z,15.57
2022-08-22T18:11:45.699Z,14.13
2022-08-22T18:14:30.023Z,15.50
2022-08-22T18:16:59.445Z,15.53
2022-08-22T18:19:46.636Z,17.05
2022-08-22T18:22:27.259Z,16.98
2022-08-22T18:24:57.131Z,23.10
2022-08-22T18:27:42.582Z,20.65
2022-08-22T18:30:19.944Z,20.05
2022-08-22T18:33:24.861Z,19.05
2022-08-22T18:36:01.188Z,18.88
2022-08-22T18:38:31.138Z,24.98
2022-08-22T18:41:11.948Z,21.02
2022-08-22T18:43:44.650Z,20.10
2022-08-22T18:46:37.981Z,18.55
2022-08-22T18:49:21.101Z,19.23
2022-08-22T18:52:09.440Z,16.63
2022-08-22T18:54:40.004Z,16.80
2022-08-22T18:57:54.424Z,17.00
2022-08-22T19:00:40.721Z,16.27
2022-08-22T19:03:07.975Z,15.80
2022-08-22T19:06:00.723Z,18.02
2022-08-22T19:08:41.189Z,17.75
2022-08-22T19:11:40.972Z,19.85
2022-08-22T19:14:36.413Z,21.67
2022-08-22T19:17:19.430Z,21.25
2022-08-22T19:20:27.785Z,21.42
2022-08-22T19:23:32.931Z,22.02
2022-08-22T19:26:25.159Z,18.17
2022-08-22T19:29:45.027Z,18.63
2022-08-22T19:32:45.413Z,15.65
2022-08-22T19:35:37.848Z,16.02
2022-08-22T19:38:08.341Z,16.05
2022-08-22T19:40:53.578Z,16.73
2022-08-22T19:46:06.647Z,15.68
2022-08-22T19:48:48.124Z,15.73
2022-08-22T19:51:22.052Z,15.25
2022-08-22T19:54:16.266Z,14.80
2022-08-22T19:57:03.026Z,15.30
2022-08-22T20:00:09.370Z,15.05
2022-08-22T20:02:40.577Z,25.02
2022-08-22T20:05:18.574Z,24.45
2022-08-22T20:08:18.647Z,22.38
2022-08-22T20:11:09.342Z,21.13
2022-08-22T20:13:38.197Z,19.08
2022-08-22T20:16:13.673Z,17.50
2022-08-22T20:19:09.315Z,15.82
2022-08-22T20:21:40.834Z,15.20
2022-08-22T20:24:32.337Z,15.27
2022-08-22T20:27:14.832Z,17.15
2022-08-22T20:30:16.558Z,17.05
2022-08-22T20:32:54.500Z,17.20
2022-08-22T20:35:34.649Z,14.05
2022-08-22T20:38:10.254Z,14.52
2022-08-22T20:41:11.800Z,14.00
2022-08-22T20:43:50.409Z,13.57
2022-08-22T20:46:43.911Z,13.63
2022-08-22T20:49:38.391Z,12.73
2022-08-22T20:52:20.695Z,14.32
2022-08-22T20:55:04.720Z,15.13
2022-08-22T20:57:34.339Z,15.60
2022-08-22T21:00:13.894Z,16.85
2022-08-22T21:02:48.607Z,14.30
2022-08-22T21:05:18.830Z,15.15
2022-08-22T21:07:49.361Z,19.88
2022-08-22T21:10:43.351Z,20.10
2022-08-22T21:13:13.480Z,21.00
2022-08-22T21:15:49.315Z,21.55
2022-08-22T21:18:35.771Z,15.90
2022-08-22T21:21:17.546Z,18.40
2022-08-22T21:23:49.454Z,18.83
2022-08-22T21:26:23.116Z,19.60
2022-08-22T21:29:03.341Z,21.05
2022-08-22T21:31:42.946Z,18.80
2022-08-22T21:34:21.599Z,22.75
2022-08-22T21:36:53.073Z,25.95
2022-08-22T21:39:27.351Z,22.35
2022-08-22T21:42:01.965Z,20.05
2022-08-22T21:44:29.545Z,18.65
2022-08-22T21:47:13.164Z,19.58
2022-08-22T21:50:13.960Z,16.85
2022-08-22T21:52:44.857Z,16.77
2022-08-22T21:55:35.117Z,16.25
2022-08-22T21:58:35.705Z,17.95
2022-08-22T22:01:27.683Z,21.35
2022-08-22T22:03:56.131Z,22.92
2022-08-22T22:06:23.712Z,22.42
2022-08-22T22:08:51.285Z,21.02
2022-08-22T22:11:20.286Z,22.00
2022-08-22T22:13:49.230Z,22.52
2022-08-22T22:16:22.890Z,24.38
2022-08-22T22:18:51.077Z,23.38
2022-08-22T22:21:18.639Z,26.05
2022-08-22T22:23:47.523Z,25.65
2022-08-22T22:26:14.986Z,25.17
2022-08-22T22:28:50.030Z,24.70
2022-08-22T22:31:18.479Z,26.85
2022-08-22T22:33:46.983Z,26.70
2022-08-22T22:36:22.703Z,27.20
2022-08-22T22:38:51.555Z,24.17
2022-08-22T22:41:23.996Z,22.60
2022-08-22T22:43:55.758Z,24.15
2022-08-22T22:46:27.198Z,24.67
2022-08-22T22:48:55.817Z,24.05
2022-08-22T22:51:24.146Z,24.67
2022-08-22T22:53:52.367Z,24.75
2022-08-22T22:56:24.640Z,24.63
2022-08-22T22:59:00.932Z,23.88
2022-08-22T23:02:01.727Z,25.20
2022-08-22T23:04:31.043Z,24.05
2022-08-22T23:06:58.767Z,24.20
2022-08-22T23:09:38.232Z,23.23
2022-08-22T23:12:14.075Z,22.38
2022-08-22T23:14:42.670Z,24.90
2022-08-22T23:17:10.841Z,24.08
2022-08-22T23:19:39.094Z,26.70
2022-08-22T23:22:08.294Z,23.25
2022-08-22T23:24:37.551Z,25.40
2022-08-22T23:27:07.240Z,24.52
2022-08-22T23:29:35.290Z,25.45
2022-08-22T23:32:04.417Z,21.67
2022-08-22T23:34:46.121Z,15.15
2022-08-22T23:37:17.224Z,13.20
2022-08-22T23:39:48.536Z,9.98
2022-08-22T23:42:18.743Z,11.35
2022-08-22T23:44:47.134Z,10.95
2022-08-22T23:47:15.192Z,9.60
2022-08-22T23:49:43.771Z,8.23
2022-08-22T23:52:13.252Z,7.75
2022-08-22T23:54:41.767Z,6.22
2022-08-22T23:57:12.017Z,5.78
2022-08-22T23:59:48.418Z,5.55
